Time;durP1;ratioP1;P1;durP2;ratioP2;P2;SDS_P1;SDS_P2;PMS_P1;PMS_P2;Temp;Humidity;BMP_temperature;BMP_pressure;BME280_temperature;BME280_humidity;BME280_pressure;Samples;Min_cycle;Max_cycle;Signal;HPM_P1;HPM_P2
2020/12/29 00:00:49;;;;;;;3.53;1.90;;;4.30;85.80;;;;;;6245672;23;20031;-80
2020/12/29 00:03:15;;;;;;;5.67;2.37;;;4.30;86.50;;;;;;6246362;23;20378;-80
2020/12/29 00:05:41;;;;;;;4.60;2.13;;;4.30;87.40;;;;;;6246438;23;19996;-81
2020/12/29 00:08:06;;;;;;;6.53;2.70;;;4.20;86.90;;;;;;6245663;22;20008;-81
2020/12/29 00:10:32;;;;;;;5.73;2.40;;;4.10;87.00;;;;;;6244989;23;20000;-81
2020/12/29 00:12:59;;;;;;;4.67;2.20;;;4.10;87.10;;;;;;6245341;23;20069;-81
2020/12/29 00:15:25;;;;;;;5.33;2.73;;;4.00;87.40;;;;;;6245969;23;20011;-81
2020/12/29 00:17:51;;;;;;;7.27;2.70;;;4.00;87.30;;;;;;6245156;22;20008;-81
2020/12/29 00:20:16;;;;;;;5.10;2.00;;;4.00;87.50;;;;;;6244899;23;20199;-81
2020/12/29 00:22:42;;;;;;;5.50;2.60;;;3.90;87.50;;;;;;6218480;23;20023;-81
2020/12/29 00:25:08;;;;;;;5.60;2.60;;;3.90;87.50;;;;;;6245142;23;20138;-81
2020/12/29 00:27:48;;;;;;;4.30;2.00;;;3.90;87.50;;;;;;6247832;22;19996;-80
2020/12/29 00:30:14;;;;;;;4.30;2.60;;;3.80;87.40;;;;;;6217491;23;20058;-81
2020/12/29 00:32:39;;;;;;;4.33;1.93;;;3.80;87.40;;;;;;6218461;23;20036;-81
2020/12/29 00:35:05;;;;;;;4.00;2.03;;;3.70;87.80;;;;;;6245892;23;20011;-80
2020/12/29 00:37:31;;;;;;;4.97;1.87;;;3.70;88.30;;;;;;6246809;22;20000;-81
2020/12/29 00:39:57;;;;;;;4.57;2.17;;;3.70;87.60;;;;;;6218079;23;20004;-81
2020/12/29 00:42:23;;;;;;;3.30;1.70;;;3.70;87.80;;;;;;6244856;23;20031;-81
2020/12/29 00:44:48;;;;;;;3.57;1.70;;;3.60;88.10;;;;;;6244884;23;20004;-81
2020/12/29 00:47:14;;;;;;;4.93;2.00;;;3.60;88.50;;;;;;6244973;22;19996;-81
2020/12/29 00:49:40;;;;;;;4.87;2.10;;;3.60;88.50;;;;;;6244274;23;20076;-81
2020/12/29 00:52:06;;;;;;;4.27;1.73;;;3.60;87.90;;;;;;6218340;23;20350;-81
2020/12/29 00:54:31;;;;;;;5.73;2.20;;;3.60;87.70;;;;;;6246196;23;20561;-81
2020/12/29 00:56:58;;;;;;;4.33;1.90;;;3.60;88.20;;;;;;6245985;22;20004;-79
2020/12/29 00:59:23;;;;;;;3.53;1.47;;;3.60;88.00;;;;;;6245346;23;20007;-80
2020/12/29 01:01:56;;;;;;;3.40;1.60;;;3.50;88.00;;;;;;6245426;23;20008;-81
2020/12/29 01:04:25;;;;;;;4.40;1.57;;;3.50;87.90;;;;;;6245787;23;20080;-81
2020/12/29 01:06:52;;;;;;;5.65;2.00;;;3.50;87.90;;;;;;6219112;23;20088;-81
2020/12/29 01:09:17;;;;;;;4.17;1.70;;;3.40;87.80;;;;;;6245253;23;20011;-80
2020/12/29 01:11:43;;;;;;;3.50;1.80;;;3.30;88.10;;;;;;6245861;23;20003;-80
2020/12/29 01:14:09;;;;;;;3.60;1.57;;;3.30;88.30;;;;;;6246187;23;20004;-81
2020/12/29 01:16:34;;;;;;;3.97;1.60;;;3.30;88.30;;;;;;6245976;22;20005;-81
2020/12/29 01:19:00;;;;;;;3.87;2.00;;;3.30;88.10;;;;;;6245215;23;20059;-80
2020/12/29 01:21:26;;;;;;;3.50;1.70;;;3.20;88.00;;;;;;6245223;23;20004;-81
2020/12/29 01:23:51;;;;;;;4.07;1.90;;;3.20;88.30;;;;;;6245466;23;20075;-80
2020/12/29 01:26:22;;;;;;;4.03;1.53;;;3.20;88.50;;;;;;6245796;22;20000;-80
2020/12/29 01:28:47;;;;;;;5.93;1.80;;;3.10;88.50;;;;;;6246482;23;20000;-80
2020/12/29 01:31:13;;;;;;;3.47;2.00;;;3.10;88.20;;;;;;6247375;23;20315;-80
2020/12/29 01:33:39;;;;;;;4.27;1.60;;;3.20;88.40;;;;;;6247705;23;20015;-80
2020/12/29 01:36:05;;;;;;;3.23;1.57;;;3.10;88.10;;;;;;6247307;22;20062;-81
2020/12/29 01:38:30;;;;;;;3.23;1.33;;;3.10;88.20;;;;;;6247770;23;20000;-81
2020/12/29 01:40:59;;;;;;;6.03;1.47;;;3.10;88.20;;;;;;6219919;23;20011;-81
2020/12/29 01:43:29;;;;;;;3.35;1.40;;;3.10;88.10;;;;;;6247500;23;20524;-81
2020/12/29 01:45:56;;;;;;;3.43;1.60;;;3.00;88.10;;;;;;6247302;23;19996;-80
2020/12/29 01:48:22;;;;;;;3.47;1.67;;;2.90;88.30;;;;;;6247321;23;20488;-80
2020/12/29 01:50:47;;;;;;;4.30;1.63;;;3.00;88.00;;;;;;6246903;23;20019;-80
2020/12/29 01:53:13;;;;;;;4.27;1.70;;;3.00;88.30;;;;;;6247600;23;20040;-81
2020/12/29 01:55:38;;;;;;;3.47;1.70;;;3.00;88.10;;;;;;6247259;23;20008;-80
2020/12/29 01:58:04;;;;;;;3.73;1.70;;;2.90;87.80;;;;;;6247512;22;20000;-80
2020/12/29 02:00:30;;;;;;;4.80;1.77;;;2.90;88.30;;;;;;6247306;23;20004;-80
2020/12/29 02:02:57;;;;;;;2.57;1.27;;;2.80;88.50;;;;;;6247751;23;20004;-81
2020/12/29 02:05:25;;;;;;;2.97;1.50;;;2.70;88.80;;;;;;6247979;23;20054;-81
2020/12/29 02:07:53;;;;;;;3.30;1.40;;;2.70;88.80;;;;;;6247644;22;20031;-81
2020/12/29 02:10:18;;;;;;;3.43;1.43;;;2.70;88.80;;;;;;6247323;23;20023;-81
2020/12/29 02:12:44;;;;;;;2.90;1.50;;;2.70;88.70;;;;;;6247428;23;20497;-81
2020/12/29 02:15:10;;;;;;;4.07;1.60;;;2.60;89.20;;;;;;6220548;23;20118;-80
2020/12/29 02:17:36;;;;;;;4.10;1.70;;;2.70;89.20;;;;;;6247351;22;20004;-81
2020/12/29 02:20:05;;;;;;;3.67;1.70;;;2.70;88.30;;;;;;6247360;23;20008;-81
2020/12/29 02:22:31;;;;;;;4.15;1.73;;;2.80;88.70;;;;;;6247645;23;20335;-81
2020/12/29 02:24:59;;;;;;;3.87;1.70;;;2.70;88.50;;;;;;6247337;23;20067;-80
2020/12/29 02:27:27;;;;;;;3.93;1.67;;;2.70;89.40;;;;;;6247284;22;20004;-81
2020/12/29 02:29:54;;;;;;;4.78;1.60;;;2.60;89.20;;;;;;6247106;23;19997;-80
2020/12/29 02:32:20;;;;;;;5.63;1.80;;;2.60;89.20;;;;;;6247072;23;20000;-81
2020/12/29 02:34:47;;;;;;;5.27;1.70;;;2.70;89.10;;;;;;6247992;23;20443;-81
2020/12/29 02:37:12;;;;;;;5.03;1.70;;;2.60;89.30;;;;;;6247232;22;20026;-81
2020/12/29 02:39:41;;;;;;;2.93;1.70;;;2.60;89.40;;;;;;6247156;23;20439;-81
2020/12/29 02:42:07;;;;;;;6.77;1.97;;;2.50;89.40;;;;;;6247630;23;20028;-80
2020/12/29 02:44:33;;;;;;;4.33;2.10;;;2.60;89.20;;;;;;6247604;23;20430;-80
2020/12/29 02:46:59;;;;;;;6.20;1.77;;;2.60;88.80;;;;;;6247699;22;20084;-80
2020/12/29 02:49:25;;;;;;;3.90;2.03;;;2.60;89.00;;;;;;6219839;23;20442;-81
2020/12/29 02:51:51;;;;;;;4.27;1.60;;;2.60;88.70;;;;;;6220258;23;20331;-80
2020/12/29 02:54:17;;;;;;;2.80;1.30;;;2.50;88.70;;;;;;6220238;23;20004;-80
2020/12/29 02:56:43;;;;;;;4.07;1.50;;;2.50;89.10;;;;;;6219993;23;19996;-81
2020/12/29 02:59:09;;;;;;;3.20;1.47;;;2.50;89.20;;;;;;6246433;23;20012;-80
2020/12/29 03:01:35;;;;;;;4.10;1.40;;;2.50;88.70;;;;;;6246884;23;20487;-80
2020/12/29 03:04:01;;;;;;;3.90;1.97;;;2.50;88.70;;;;;;6246313;23;20000;-80
2020/12/29 03:06:26;;;;;;;3.20;1.53;;;2.60;89.00;;;;;;6220149;23;20066;-81
2020/12/29 03:08:52;;;;;;;4.67;1.70;;;2.50;88.70;;;;;;6245863;23;20006;-80
2020/12/29 03:11:29;;;;;;;3.80;1.67;;;2.50;88.60;;;;;;6246330;23;20000;-81
2020/12/29 03:13:56;;;;;;;3.67;1.83;;;2.50;88.80;;;;;;6246311;23;20000;-80
2020/12/29 03:16:22;;;;;;;4.73;1.80;;;2.50;88.40;;;;;;6219246;23;20011;-81
2020/12/29 03:18:48;;;;;;;4.27;1.73;;;2.50;88.40;;;;;;6219155;23;20012;-80
2020/12/29 03:21:14;;;;;;;5.60;1.70;;;2.50;88.40;;;;;;6245675;23;20075;-80
2020/12/29 03:23:42;;;;;;;3.97;1.63;;;2.40;88.40;;;;;;6245813;23;20494;-80
2020/12/29 03:26:08;;;;;;;4.17;1.70;;;2.40;88.70;;;;;;6245805;22;20488;-80
2020/12/29 03:28:34;;;;;;;5.23;1.93;;;2.30;88.60;;;;;;6246066;23;20030;-80
2020/12/29 03:30:59;;;;;;;2.93;1.50;;;2.30;88.50;;;;;;6245455;23;20336;-81
2020/12/29 03:33:25;;;;;;;4.07;1.70;;;2.30;88.30;;;;;;6245243;23;20000;-80
2020/12/29 03:35:52;;;;;;;5.67;1.90;;;2.30;88.90;;;;;;6244782;23;20008;-80
2020/12/29 03:38:18;;;;;;;8.27;2.20;;;2.30;88.90;;;;;;6245573;22;20054;-80
2020/12/29 03:40:44;;;;;;;4.67;1.60;;;2.20;88.70;;;;;;6245267;23;20028;-80
2020/12/29 03:43:13;;;;;;;3.53;1.80;;;2.30;88.50;;;;;;6246884;23;20004;-81
2020/12/29 03:45:40;;;;;;;5.10;1.60;;;2.30;88.30;;;;;;6250429;23;20024;-81
2020/12/29 03:48:07;;;;;;;3.53;1.40;;;2.30;88.50;;;;;;6249415;22;20000;-81
2020/12/29 03:50:32;;;;;;;3.87;1.67;;;2.40;88.40;;;;;;6247944;23;20000;-81
2020/12/29 03:52:58;;;;;;;3.70;1.80;;;2.40;88.10;;;;;;6248032;23;20004;-80
2020/12/29 03:55:24;;;;;;;3.27;1.50;;;2.50;88.00;;;;;;6248237;23;20058;-81
2020/12/29 03:57:49;;;;;;;4.40;1.40;;;2.40;88.40;;;;;;6221234;23;20014;-82
2020/12/29 04:00:15;;;;;;;3.63;1.47;;;2.40;87.80;;;;;;6248326;23;20432;-81
2020/12/29 04:02:40;;;;;;;4.13;1.60;;;2.50;87.40;;;;;;6249290;23;20012;-80
2020/12/29 04:05:08;;;;;;;3.73;1.50;;;2.50;87.30;;;;;;6249342;23;20000;-81
2020/12/29 04:07:33;;;;;;;6.10;1.90;;;2.50;87.70;;;;;;6222846;23;20054;-81
2020/12/29 04:09:59;;;;;;;5.20;2.23;;;2.40;88.00;;;;;;6249215;23;20362;-81
2020/12/29 04:12:25;;;;;;;3.67;1.70;;;2.30;88.00;;;;;;6249597;23;20004;-80
2020/12/29 04:14:50;;;;;;;5.07;1.40;;;2.30;88.30;;;;;;6249558;23;20082;-80
2020/12/29 04:17:16;;;;;;;3.23;1.50;;;2.30;88.30;;;;;;6250585;22;20004;-81
2020/12/29 04:19:41;;;;;;;4.97;1.57;;;2.30;89.10;;;;;;6250199;23;20042;-81
2020/12/29 04:22:07;;;;;;;3.33;1.37;;;2.20;88.30;;;;;;6248887;23;20055;-82
2020/12/29 04:24:32;;;;;;;2.60;1.40;;;2.20;89.00;;;;;;6248595;23;19996;-81
2020/12/29 04:26:58;;;;;;;5.33;1.70;;;2.20;89.20;;;;;;6248945;22;20000;-81
2020/12/29 04:29:24;;;;;;;3.30;1.63;;;2.20;89.50;;;;;;6249150;23;20431;-81
2020/12/29 04:31:49;;;;;;;3.97;1.80;;;2.20;89.40;;;;;;6250232;23;20079;-82
2020/12/29 04:34:15;;;;;;;7.10;3.70;;;2.20;89.30;;;;;;6246149;23;20452;-81
2020/12/29 04:36:40;;;;;;;6.53;2.40;;;2.20;89.20;;;;;;6218920;23;20027;-81
2020/12/29 04:39:06;;;;;;;3.60;1.70;;;2.20;88.90;;;;;;6244773;23;20309;-81
2020/12/29 04:41:32;;;;;;;3.37;1.83;;;2.20;89.30;;;;;;6245881;23;20004;-81
2020/12/29 04:43:58;;;;;;;4.50;1.50;;;2.20;89.20;;;;;;6218176;23;20031;-81
2020/12/29 04:46:23;;;;;;;5.77;2.30;;;2.10;89.10;;;;;;6218652;23;20335;-81
2020/12/29 04:48:49;;;;;;;3.93;1.57;;;2.10;89.30;;;;;;6245593;23;20427;-81
2020/12/29 04:51:16;;;;;;;3.43;1.57;;;2.00;89.50;;;;;;6245456;23;19996;-81
2020/12/29 04:53:55;;;;;;;3.97;1.80;;;2.00;89.80;;;;;;6218488;23;20042;-81
2020/12/29 04:56:25;;;;;;;3.47;1.73;;;2.00;89.50;;;;;;6245403;22;20008;-81
2020/12/29 04:58:52;;;;;;;3.60;1.70;;;2.00;89.70;;;;;;6244432;23;20078;-79
2020/12/29 05:01:22;;;;;;;3.90;1.80;;;2.00;89.70;;;;;;6244429;23;20011;-79
2020/12/29 05:03:49;;;;;;;6.00;2.00;;;2.10;89.80;;;;;;6245015;23;20079;-80
2020/12/29 05:06:15;;;;;;;4.37;2.03;;;2.10;89.20;;;;;;6219525;22;20000;-79
2020/12/29 05:08:49;;;;;;;3.53;1.87;;;2.10;89.70;;;;;;6246837;23;20000;-79
2020/12/29 05:11:16;;;;;;;4.00;1.80;;;2.10;89.60;;;;;;6219577;23;20000;-79
2020/12/29 05:13:43;;;;;;;4.00;1.90;;;2.10;89.50;;;;;;6246920;23;20004;-80
2020/12/29 05:16:09;;;;;;;4.13;1.90;;;2.20;89.20;;;;;;6247086;22;20059;-79
2020/12/29 05:18:34;;;;;;;4.23;1.70;;;2.10;88.80;;;;;;6246871;23;20500;-80
2020/12/29 05:21:00;;;;;;;4.53;1.97;;;2.10;89.40;;;;;;6245758;23;20005;-80
2020/12/29 05:23:26;;;;;;;4.83;1.80;;;2.10;89.40;;;;;;6247166;23;20091;-80
2020/12/29 05:25:52;;;;;;;3.43;1.80;;;2.20;88.70;;;;;;6247778;23;20435;-80
2020/12/29 05:28:18;;;;;;;3.97;2.13;;;2.20;88.70;;;;;;6247583;22;20011;-80
2020/12/29 05:30:52;;;;;;;4.67;2.13;;;2.30;89.20;;;;;;6247406;23;20431;-80
2020/12/29 05:33:18;;;;;;;5.53;2.20;;;2.30;89.40;;;;;;6247528;23;20012;-80
2020/12/29 05:35:44;;;;;;;4.90;2.23;;;2.40;89.20;;;;;;6247559;23;20061;-81
2020/12/29 05:38:11;;;;;;;4.80;2.10;;;2.40;88.90;;;;;;6247489;22;20054;-80
2020/12/29 05:40:36;;;;;;;3.97;1.97;;;2.40;88.70;;;;;;6247345;23;20034;-81
2020/12/29 05:43:03;;;;;;;4.07;2.20;;;2.20;88.50;;;;;;6247726;23;20000;-80
2020/12/29 05:45:34;;;;;;;5.10;2.43;;;2.20;89.10;;;;;;6247675;23;20349;-80
2020/12/29 05:48:01;;;;;;;6.60;3.00;;;2.10;89.70;;;;;;6247625;22;20427;-81
2020/12/29 05:50:28;;;;;;;6.10;2.97;;;2.10;89.60;;;;;;6246923;23;20071;-81
2020/12/29 05:52:56;;;;;;;6.80;2.70;;;2.10;89.70;;;;;;6247832;23;20004;-81
2020/12/29 05:55:22;;;;;;;5.20;2.57;;;2.10;89.80;;;;;;6248685;23;20000;-80
2020/12/29 05:58:06;;;;;;;4.90;2.30;;;2.20;90.00;;;;;;6248048;22;20007;-80
2020/12/29 06:00:33;;;;;;;8.33;3.47;;;2.30;88.90;;;;;;6247124;23;20111;-81
2020/12/29 06:02:59;;;;;;;7.50;3.60;;;2.30;88.70;;;;;;6247969;23;20012;-81
2020/12/29 06:05:27;;;;;;;10.20;3.87;;;2.30;89.00;;;;;;6220760;23;20000;-82
2020/12/29 06:07:57;;;;;;;8.00;3.30;;;2.30;88.50;;;;;;6247363;22;20063;-80
2020/12/29 06:10:24;;;;;;;8.33;3.33;;;2.30;88.50;;;;;;6247226;23;20001;-81
2020/12/29 06:12:56;;;;;;;5.57;2.40;;;2.20;88.30;;;;;;6247657;23;20000;-80
2020/12/29 06:15:39;;;;;;;6.33;2.70;;;2.20;89.30;;;;;;6220577;23;20031;-80
2020/12/29 06:18:07;;;;;;;6.43;2.40;;;2.20;89.20;;;;;;6250301;22;20004;-81
2020/12/29 06:20:37;;;;;;;5.50;2.77;;;2.10;89.60;;;;;;6246493;23;20505;-81
2020/12/29 06:23:05;;;;;;;5.33;2.40;;;2.10;90.00;;;;;;6248531;23;20004;-82
2020/12/29 06:25:33;;;;;;;5.53;3.30;;;2.10;89.80;;;;;;6221041;23;19996;-81
2020/12/29 06:28:01;;;;;;;7.53;3.73;;;2.10;89.50;;;;;;6220409;23;20004;-81
2020/12/29 06:30:26;;;;;;;5.70;2.90;;;2.10;89.60;;;;;;6247360;23;20000;-81
2020/12/29 06:32:54;;;;;;;5.10;2.60;;;2.10;89.50;;;;;;6247954;23;20006;-81
2020/12/29 06:35:22;;;;;;;4.80;2.60;;;2.10;89.80;;;;;;6249295;23;20000;-79
2020/12/29 06:38:14;;;;;;;6.20;2.80;;;2.10;89.60;;;;;;6248286;22;20381;-80
2020/12/29 06:40:41;;;;;;;7.00;3.00;;;2.10;89.50;;;;;;6246778;23;20004;-80
2020/12/29 06:43:08;;;;;;;4.97;2.50;;;2.10;89.20;;;;;;6246988;23;20335;-80
2020/12/29 06:45:36;;;;;;;7.00;3.37;;;2.20;89.50;;;;;;6246897;23;20004;-81
2020/12/29 06:48:18;;;;;;;5.27;3.10;;;2.30;88.70;;;;;;6246922;22;20084;-80
2020/12/29 06:50:44;;;;;;;6.40;2.97;;;2.30;88.60;;;;;;6219308;23;20032;-80
2020/12/29 06:53:14;;;;;;;8.27;3.00;;;2.40;88.90;;;;;;6246920;23;20431;-80
2020/12/29 06:55:45;;;;;;;5.97;3.10;;;2.40;89.00;;;;;;6246965;23;20058;-81
2020/12/29 06:58:32;;;;;;;6.17;3.20;;;2.40;88.60;;;;;;6220440;23;20083;-80
2020/12/29 07:01:21;;;;;;;5.93;2.77;;;2.40;89.50;;;;;;6246752;23;20601;-81
2020/12/29 07:03:59;;;;;;;5.82;3.10;;;2.40;88.90;;;;;;6246640;23;20008;-79
2020/12/29 07:06:28;;;;;;;4.83;3.00;;;2.50;89.20;;;;;;6245650;22;20079;-79
2020/12/29 07:09:00;;;;;;;5.97;3.10;;;2.50;89.00;;;;;;6245221;23;20000;-80
2020/12/29 07:11:26;;;;;;;6.17;3.30;;;2.40;89.40;;;;;;6245832;23;19996;-79
2020/12/29 07:13:52;;;;;;;8.13;3.50;;;2.40;90.00;;;;;;6245631;23;20062;-80
2020/12/29 07:16:23;;;;;;;6.70;3.13;;;2.40;90.00;;;;;;6219615;22;20069;-79
2020/12/29 07:18:49;;;;;;;7.90;3.90;;;2.40;90.00;;;;;;6246981;23;20004;-81
2020/12/29 07:21:28;;;;;;;7.00;3.90;;;2.40;90.10;;;;;;6248585;23;20011;-81
2020/12/29 07:23:55;;;;;;;7.72;3.92;;;2.50;90.00;;;;;;6220980;23;20004;-81
2020/12/29 07:26:22;;;;;;;7.60;3.73;;;2.50;89.70;;;;;;6246519;22;20004;-82
2020/12/29 07:28:54;;;;;;;6.90;3.93;;;2.50;89.70;;;;;;6247463;23;19997;-81
2020/12/29 07:31:20;;;;;;;7.40;3.90;;;2.50;90.00;;;;;;6220112;23;20007;-81
2020/12/29 07:33:52;;;;;;;8.33;4.17;;;2.60;89.70;;;;;;6247958;23;19996;-82
2020/12/29 07:36:18;;;;;;;9.07;4.80;;;2.70;90.10;;;;;;6220076;22;20466;-81
2020/12/29 07:38:49;;;;;;;9.40;4.93;;;2.70;90.10;;;;;;6247635;23;20008;-81
2020/12/29 07:41:19;;;;;;;9.80;5.20;;;2.80;90.00;;;;;;6246365;23;20004;-81
2020/12/29 07:43:47;;;;;;;;;;;2.70;90.40;;;;;;6246819;23;20340;-81
2020/12/29 07:46:13;;;;;;;11.50;5.32;;;2.80;90.00;;;;;;6246288;22;19911;-81
2020/12/29 07:48:40;;;;;;;9.17;5.17;;;2.80;90.00;;;;;;6246428;23;20085;-81
2020/12/29 07:51:07;;;;;;;9.80;5.63;;;2.90;90.00;;;;;;6245435;23;20114;-81
2020/12/29 07:53:33;;;;;;;12.60;6.30;;;2.90;90.00;;;;;;6246077;23;20034;-81
2020/12/29 07:55:58;;;;;;;10.30;5.33;;;2.90;90.00;;;;;;6247687;22;20008;-81
2020/12/29 07:58:24;;;;;;;10.40;5.97;;;3.00;90.00;;;;;;6246280;23;20090;-81
2020/12/29 08:00:50;;;;;;;11.40;6.33;;;3.00;89.70;;;;;;6245054;23;20031;-80
2020/12/29 08:03:18;;;;;;;9.13;5.90;;;3.00;89.80;;;;;;6245061;23;20008;-79
2020/12/29 08:05:45;;;;;;;10.23;6.13;;;3.00;89.80;;;;;;6245797;23;20007;-80
2020/12/29 08:08:12;;;;;;;10.90;6.43;;;3.00;89.50;;;;;;6245229;22;20039;-80
2020/12/29 08:10:40;;;;;;;10.20;6.30;;;3.00;89.80;;;;;;6244788;23;20007;-80
2020/12/29 08:13:08;;;;;;;11.10;5.67;;;3.00;89.80;;;;;;6245542;23;20078;-80
2020/12/29 08:15:38;;;;;;;12.07;6.30;;;3.00;89.80;;;;;;6245766;23;20029;-80
2020/12/29 08:18:09;;;;;;;10.67;6.27;;;3.10;89.20;;;;;;6245382;22;20035;-80
2020/12/29 08:20:48;;;;;;;11.27;6.20;;;3.10;89.50;;;;;;6244635;23;20053;-80
2020/12/29 08:23:16;;;;;;;12.93;6.43;;;3.00;89.70;;;;;;6245414;23;20014;-80
2020/12/29 08:25:56;;;;;;;13.93;6.53;;;3.10;89.50;;;;;;6246075;23;20377;-79
2020/12/29 08:28:25;;;;;;;13.77;6.80;;;3.00;89.90;;;;;;6245334;23;20063;-80
2020/12/29 08:30:51;;;;;;;12.07;6.82;;;3.10;89.40;;;;;;6244655;23;20078;-80
2020/12/29 08:33:20;;;;;;;11.70;6.73;;;3.10;89.60;;;;;;6245277;23;20004;-80
2020/12/29 08:35:49;;;;;;;15.10;6.60;;;3.10;89.50;;;;;;6245426;23;20015;-81
2020/12/29 08:38:28;;;;;;;17.03;7.27;;;3.10;89.20;;;;;;6245224;22;20004;-80
2020/12/29 08:41:12;;;;;;;11.35;6.75;;;3.10;89.20;;;;;;6245563;23;20058;-80
2020/12/29 08:43:47;;;;;;;13.60;7.03;;;3.10;89.20;;;;;;6246024;23;20004;-80
2020/12/29 08:46:15;;;;;;;12.53;6.30;;;3.10;89.40;;;;;;6244869;22;19997;-79
2020/12/29 08:48:52;;;;;;;14.60;7.00;;;3.00;89.10;;;;;;6246023;23;20003;-80
2020/12/29 08:51:20;;;;;;;13.30;7.23;;;3.10;89.50;;;;;;6245773;23;20003;-81
2020/12/29 08:53:46;;;;;;;15.17;6.93;;;3.10;89.50;;;;;;6246861;23;20000;-81
2020/12/29 08:56:27;;;;;;;13.37;7.37;;;3.10;90.00;;;;;;6246990;22;20031;-81
2020/12/29 08:58:53;;;;;;;11.53;6.30;;;3.10;89.10;;;;;;6245942;23;20008;-80
2020/12/29 09:01:40;;;;;;;12.77;6.73;;;3.10;89.10;;;;;;6219913;23;20015;-81
2020/12/29 09:04:25;;;;;;;11.63;6.40;;;3.10;89.80;;;;;;6246489;23;20000;-80
2020/12/29 09:06:55;;;;;;;14.10;6.60;;;3.10;89.80;;;;;;6246213;22;20591;-81
2020/12/29 09:09:21;;;;;;;11.87;6.10;;;3.10;89.70;;;;;;6245169;23;20454;-81
2020/12/29 09:11:47;;;;;;;12.33;5.70;;;3.10;89.50;;;;;;6246246;23;19997;-79
2020/12/29 09:14:13;;;;;;;14.03;5.93;;;3.10;89.60;;;;;;6246020;23;20011;-81
2020/12/29 09:16:38;;;;;;;10.67;5.90;;;3.10;89.40;;;;;;6246959;22;20362;-81
2020/12/29 09:19:13;;;;;;;10.90;5.90;;;3.10;89.40;;;;;;6244741;23;20004;-81
2020/12/29 09:21:39;;;;;;;11.63;6.23;;;3.20;89.60;;;;;;6219650;23;20007;-81
2020/12/29 09:24:05;;;;;;;10.20;5.87;;;3.10;89.60;;;;;;6246272;23;20062;-81
2020/12/29 09:26:30;;;;;;;12.43;6.07;;;3.20;89.60;;;;;;6247243;22;20429;-81
2020/12/29 09:28:57;;;;;;;13.67;6.43;;;3.20;89.60;;;;;;6223136;23;20003;-82
2020/12/29 09:31:28;;;;;;;11.23;6.37;;;3.10;89.70;;;;;;6249836;23;20427;-82
2020/12/29 09:33:54;;;;;;;10.60;6.00;;;3.20;89.90;;;;;;6248310;23;20011;-82
2020/12/29 09:36:25;;;;;;;14.60;6.70;;;3.20;89.90;;;;;;6247781;22;20066;-81
2020/12/29 09:38:53;;;;;;;11.33;6.50;;;3.20;89.60;;;;;;6246839;23;20007;-81
2020/12/29 09:41:19;;;;;;;11.43;5.97;;;3.20;89.60;;;;;;6246111;23;20351;-81
2020/12/29 09:43:45;;;;;;;12.53;6.70;;;3.30;90.10;;;;;;6219165;23;20008;-81
2020/12/29 09:46:11;;;;;;;13.37;6.77;;;3.20;89.50;;;;;;6248464;22;19997;-81
2020/12/29 09:48:37;;;;;;;14.90;6.90;;;3.30;89.80;;;;;;6245974;23;20071;-81
2020/12/29 09:51:04;;;;;;;15.53;6.77;;;3.30;89.60;;;;;;6220503;23;20004;-82
2020/12/29 09:53:30;;;;;;;12.77;5.97;;;3.30;89.60;;;;;;6249505;23;20057;-81
2020/12/29 09:55:56;;;;;;;12.03;6.77;;;3.30;89.80;;;;;;6247485;23;20042;-81
2020/12/29 09:58:22;;;;;;;13.37;6.80;;;3.30;89.80;;;;;;6247833;23;20000;-81
2020/12/29 10:00:49;;;;;;;12.33;7.17;;;3.30;90.30;;;;;;6246677;23;20184;-79
2020/12/29 10:03:15;;;;;;;12.23;7.10;;;3.30;90.00;;;;;;6220331;23;20008;-81
2020/12/29 10:05:40;;;;;;;16.30;7.63;;;3.30;90.00;;;;;;6249113;23;20004;-81
2020/12/29 10:08:06;;;;;;;14.63;7.20;;;3.30;89.80;;;;;;6248595;22;20008;-82
2020/12/29 10:10:32;;;;;;;14.40;7.53;;;3.40;90.00;;;;;;6220608;23;20004;-81
2020/12/29 10:12:57;;;;;;;16.77;7.73;;;3.40;90.10;;;;;;6248465;23;20004;-81
2020/12/29 10:15:23;;;;;;;15.60;7.90;;;3.30;90.10;;;;;;6248403;23;20015;-80
2020/12/29 10:17:49;;;;;;;16.80;8.27;;;3.40;90.20;;;;;;6249161;22;20000;-81
2020/12/29 10:20:15;;;;;;;14.20;8.63;;;3.40;90.30;;;;;;6254833;23;19996;-81
2020/12/29 10:22:40;;;;;;;13.70;8.27;;;3.40;90.30;;;;;;6249962;23;20134;-82
2020/12/29 10:25:10;;;;;;;14.10;8.37;;;3.40;90.20;;;;;;6248517;23;20000;-81
2020/12/29 10:27:36;;;;;;;16.57;8.50;;;3.50;90.30;;;;;;6248701;22;20019;-82
2020/12/29 10:30:03;;;;;;;16.40;7.87;;;3.50;90.30;;;;;;6223502;23;20423;-81
2020/12/29 10:32:29;;;;;;;16.70;8.13;;;3.50;90.40;;;;;;6252355;23;20008;-80
2020/12/29 10:34:54;;;;;;;14.37;8.17;;;3.50;90.50;;;;;;6227244;23;20083;-81
2020/12/29 10:37:20;;;;;;;15.90;8.47;;;3.40;90.50;;;;;;6255242;22;20035;-81
2020/12/29 10:39:46;;;;;;;16.23;9.33;;;3.40;90.60;;;;;;6254069;23;20015;-82
2020/12/29 10:42:19;;;;;;;18.00;9.17;;;3.50;90.80;;;;;;6247758;23;20004;-81
2020/12/29 10:44:44;;;;;;;19.27;9.67;;;3.50;90.90;;;;;;6222354;23;20051;-81
2020/12/29 10:47:10;;;;;;;22.07;10.63;;;3.50;91.00;;;;;;6251065;22;20046;-81
2020/12/29 10:49:38;;;;;;;23.47;11.87;;;3.50;91.30;;;;;;6251171;23;19996;-80
2020/12/29 10:52:04;;;;;;;25.33;12.27;;;3.40;91.50;;;;;;6256663;23;20000;-80
2020/12/29 10:54:29;;;;;;;27.73;12.90;;;3.50;91.70;;;;;;6254655;22;20011;-81
2020/12/29 10:56:55;;;;;;;25.57;13.47;;;3.50;91.90;;;;;;6255091;22;19996;-79
2020/12/29 10:59:21;;;;;;;26.57;13.87;;;3.50;92.10;;;;;;6252461;23;20000;-81
2020/12/29 11:01:46;;;;;;;25.40;13.37;;;3.50;92.10;;;;;;6254148;23;19996;-81
2020/12/29 11:04:12;;;;;;;30.93;13.87;;;3.50;92.00;;;;;;6254526;23;20445;-81
2020/12/29 11:06:37;;;;;;;28.60;13.97;;;3.50;92.30;;;;;;6249368;22;20010;-81
2020/12/29 11:09:04;;;;;;;31.53;15.20;;;3.50;92.60;;;;;;6248035;23;20068;-81
2020/12/29 11:11:29;;;;;;;34.87;16.13;;;3.60;92.60;;;;;;6247436;23;20075;-80
2020/12/29 11:13:55;;;;;;;31.33;15.43;;;3.60;92.70;;;;;;6246893;23;20431;-80
2020/12/29 11:16:21;;;;;;;32.83;15.70;;;3.50;92.70;;;;;;6247254;22;20074;-81
2020/12/29 11:18:49;;;;;;;33.67;15.43;;;3.60;92.90;;;;;;6249375;23;20015;-81
2020/12/29 11:21:19;;;;;;;39.27;17.27;;;3.60;92.90;;;;;;6249197;23;20390;-81
2020/12/29 11:23:46;;;;;;;35.97;16.83;;;3.60;92.90;;;;;;6254352;23;20004;-81
2020/12/29 11:26:16;;;;;;;38.73;18.40;;;3.60;93.00;;;;;;6253441;22;19996;-81
2020/12/29 11:28:42;;;;;;;37.10;17.50;;;3.60;92.90;;;;;;6227108;23;20011;-81
2020/12/29 11:31:19;;;;;;;40.43;18.17;;;3.60;93.00;;;;;;6252817;23;20305;-81
2020/12/29 11:33:45;;;;;;;34.50;17.93;;;3.60;93.10;;;;;;6249981;23;20134;-81
2020/12/29 11:36:15;;;;;;;39.27;19.10;;;3.60;93.20;;;;;;6251894;22;20439;-81
2020/12/29 11:38:41;;;;;;;45.17;18.83;;;3.60;93.20;;;;;;6251043;23;20003;-81
2020/12/29 11:41:06;;;;;;;40.77;19.77;;;3.60;93.20;;;;;;6224127;23;20004;-81
2020/12/29 11:43:32;;;;;;;36.27;17.97;;;3.70;93.40;;;;;;6250139;23;20011;-82
2020/12/29 11:45:57;;;;;;;41.00;19.70;;;3.60;93.30;;;;;;6251345;22;20010;-82
2020/12/29 11:48:23;;;;;;;44.90;19.57;;;3.70;93.40;;;;;;6249762;23;20334;-81
2020/12/29 11:50:51;;;;;;;38.60;18.27;;;3.70;93.30;;;;;;6247194;23;20005;-82
2020/12/29 11:53:17;;;;;;;36.73;19.43;;;3.70;93.20;;;;;;6222032;23;20008;-81
2020/12/29 11:55:42;;;;;;;41.10;19.73;;;3.70;93.40;;;;;;6223021;23;20467;-82
2020/12/29 11:58:08;;;;;;;41.70;20.07;;;3.70;93.40;;;;;;6248864;23;20008;-82
2020/12/29 12:00:41;;;;;;;41.60;20.10;;;3.70;93.50;;;;;;6250278;23;20427;-81
2020/12/29 12:03:07;;;;;;;39.53;20.20;;;3.70;93.50;;;;;;6252132;23;20004;-80
2020/12/29 12:05:33;;;;;;;40.97;21.20;;;3.80;93.50;;;;;;6247304;23;20083;-82
2020/12/29 12:07:58;;;;;;;41.17;21.03;;;3.80;93.50;;;;;;6257587;22;20019;-82
2020/12/29 12:10:24;;;;;;;41.80;21.00;;;3.80;93.20;;;;;;6253321;23;20006;-81
2020/12/29 12:12:50;;;;;;;40.43;20.47;;;3.90;93.40;;;;;;6253489;23;20000;-82
2020/12/29 12:15:16;;;;;;;43.50;20.57;;;3.90;93.30;;;;;;6253939;23;20000;-81
2020/12/29 12:17:41;;;;;;;42.17;20.27;;;3.90;93.20;;;;;;6253699;22;19997;-81
2020/12/29 12:20:07;;;;;;;43.60;22.93;;;3.90;93.10;;;;;;6253031;23;20012;-81
2020/12/29 12:22:32;;;;;;;36.83;18.93;;;4.00;93.10;;;;;;6252096;23;20004;-82
2020/12/29 12:24:58;;;;;;;39.93;20.43;;;4.00;92.90;;;;;;6254032;23;20011;-82
2020/12/29 12:27:24;;;;;;;35.47;18.70;;;4.00;92.80;;;;;;6253705;22;20000;-81
2020/12/29 12:29:49;;;;;;;39.07;18.33;;;4.00;92.80;;;;;;6251416;23;20007;-82
2020/12/29 12:32:15;;;;;;;35.93;18.40;;;4.10;92.80;;;;;;6253342;23;20008;-82
2020/12/29 12:34:41;;;;;;;35.47;18.27;;;4.10;92.50;;;;;;6252970;23;20439;-82
2020/12/29 12:37:06;;;;;;;38.00;18.30;;;4.10;92.50;;;;;;6252089;22;20431;-82
2020/12/29 12:39:32;;;;;;;34.77;17.87;;;4.10;92.50;;;;;;6226628;23;20091;-82
2020/12/29 12:41:58;;;;;;;36.90;18.50;;;4.10;92.50;;;;;;6254186;23;20070;-80
2020/12/29 12:44:24;;;;;;;40.00;19.40;;;4.10;92.50;;;;;;6226570;23;20079;-80
2020/12/29 12:46:49;;;;;;;33.73;17.87;;;4.10;92.20;;;;;;6249184;22;20069;-80
2020/12/29 12:49:15;;;;;;;33.80;17.47;;;4.20;91.80;;;;;;6245271;23;20396;-81
2020/12/29 12:51:47;;;;;;;33.07;16.50;;;4.20;91.90;;;;;;6247566;23;19996;-81